Time;durP1;ratioP1;P1;durP2;ratioP2;P2;SDS_P1;SDS_P2;PMS_P1;PMS_P2;Temp;Humidity;BMP_temperature;BMP_pressure;BME280_temperature;BME280_humidity;BME280_pressure;Samples;Min_cycle;Max_cycle;Signal;HPM_P1;HPM_P2
2023/08/13 00:01:30;;;;;;;;;;;;;;;21.31;50.04;101632.25;4838124;29;124193;-80
2023/08/13 00:03:58;;;;;;;;;;;;;;;21.31;50.07;101626.84;4836485;29;114459;-80
2023/08/13 00:06:25;;;;;;;;;;;;;;;21.30;49.93;101633.19;4820677;29;112956;-80
2023/08/13 00:08:52;;;;;;;;;;;;;;;21.30;50.05;101630.50;4836960;29;124223;-80
2023/08/13 00:11:19;;;;;;;;;;;;;;;21.29;50.00;101629.66;4833495;29;123298;-80
2023/08/13 00:13:46;;;;;;;;;;;;;;;21.28;50.02;101637.84;4852175;29;114407;-81
2023/08/13 00:16:13;;;;;;;;;;;;;;;21.26;50.03;101639.81;4836007;29;113093;-80
2023/08/13 00:18:40;;;;;;;;;;;;;;;21.25;50.10;101632.69;4828399;29;124281;-80
2023/08/13 00:21:07;;;;;;;;;;;;;;;21.24;50.12;101641.78;4834786;29;125393;-80
2023/08/13 00:23:34;;;;;;;;;;;;;;;21.23;50.00;101640.03;4851568;29;114205;-80
2023/08/13 00:26:02;;;;;;;;;;;;;;;21.20;50.08;101636.59;4835986;29;113882;-80
2023/08/13 00:28:30;;;;;;;;;;;;;;;21.19;49.99;101640.28;4824170;29;124376;-80
2023/08/13 00:30:57;;;;;;;;;;;;;;;21.17;50.01;101636.88;4836157;29;124322;-80
2023/08/13 00:33:24;;;;;;;;;;;;;;;21.15;49.97;101644.22;4835970;29;115597;-80
2023/08/13 00:35:51;;;;;;;;;;;;;;;21.12;50.00;101633.66;4837262;29;114549;-80
2023/08/13 00:38:18;;;;;;;;;;;;;;;21.09;50.02;101639.28;4821611;29;124217;-80
2023/08/13 00:40:46;;;;;;;;;;;;;;;21.06;49.99;101633.25;4833770;29;124281;-80
2023/08/13 00:43:13;;;;;;;;;;;;;;;21.04;50.01;101636.09;4851969;28;115286;-79
2023/08/13 00:45:42;;;;;;;;;;;;;;;21.00;50.04;101639.97;4820591;29;114950;-80
2023/08/13 00:48:09;;;;;;;;;;;;;;;20.98;50.01;101639.25;4831258;29;125441;-80
2023/08/13 00:50:36;;;;;;;;;;;;;;;20.95;50.09;101637.66;4835740;29;123715;-79
2023/08/13 00:53:05;;;;;;;;;;;;;;;20.92;50.10;101631.63;4834974;29;114087;-80
2023/08/13 00:55:32;;;;;;;;;;;;;;;20.88;50.20;101635.53;4834550;29;113755;-80
2023/08/13 00:58:00;;;;;;;;;;;;;;;20.84;50.13;101628.69;4849671;29;124262;-80
2023/08/13 01:00:27;;;;;;;;;;;;;;;20.80;50.10;101628.91;4821137;29;123797;-80
2023/08/13 01:02:54;;;;;;;;;;;;;;;20.78;50.18;101630.84;4837541;29;114341;-79
2023/08/13 01:05:27;;;;;;;;;;;;;;;20.75;50.12;101631.06;4835351;29;113580;-80
2023/08/13 01:08:03;;;;;;;;;;;;;;;20.72;50.10;101625.94;4830030;29;123673;-80
2023/08/13 01:10:33;;;;;;;;;;;;;;;20.70;50.16;101633.28;4834463;29;125245;-79
2023/08/13 01:13:08;;;;;;;;;;;;;;;20.68;50.13;101624.47;4835243;29;114786;-80
2023/08/13 01:15:39;;;;;;;;;;;;;;;20.65;50.22;101623.84;4836392;29;113641;-80
2023/08/13 01:18:07;;;;;;;;;;;;;;;20.63;50.26;101625.78;4834785;29;126361;-80
2023/08/13 01:20:36;;;;;;;;;;;;;;;20.60;50.29;101621.47;4835917;29;123427;-80
2023/08/13 01:23:03;;;;;;;;;;;;;;;20.55;50.14;101618.22;4851066;29;115652;-80
2023/08/13 01:25:31;;;;;;;;;;;;;;;20.54;50.26;101621.91;4836526;29;114687;-80
2023/08/13 01:28:02;;;;;;;;;;;;;;;20.51;50.31;101616.75;4834890;29;123411;-79
2023/08/13 01:30:43;;;;;;;;;;;;;;;20.48;50.31;101622.38;4850161;28;123155;-80
2023/08/13 01:33:13;;;;;;;;;;;;;;;20.41;50.34;101617.44;4848676;29;114733;-80
2023/08/13 01:35:42;;;;;;;;;;;;;;;20.39;50.24;101619.38;4829259;29;113813;-80
2023/08/13 01:38:10;;;;;;;;;;;;;;;20.35;50.44;101617.88;4834968;28;125061;-80
2023/08/13 01:40:37;;;;;;;;;;;;;;;20.34;50.34;101620.69;4835881;29;124151;-80
2023/08/13 01:43:04;;;;;;;;;;;;;;;20.30;50.31;101628.13;4834738;29;114903;-80
2023/08/13 01:45:31;;;;;;;;;;;;;;;20.28;50.38;101626.53;4835783;29;113027;-80
2023/08/13 01:47:58;;;;;;;;;;;;;;;20.26;50.49;101632.03;4834624;29;124132;-79
2023/08/13 01:50:25;;;;;;;;;;;;;;;20.23;50.41;101629.56;4836252;29;124692;-80
2023/08/13 01:52:52;;;;;;;;;;;;;;;20.21;50.48;101626.09;4834919;29;114982;-80
2023/08/13 01:55:20;;;;;;;;;;;;;;;20.19;50.47;101633.44;4834682;29;113278;-80
2023/08/13 01:57:47;;;;;;;;;;;;;;;20.16;50.50;101631.00;4834234;29;124597;-80
2023/08/13 02:00:15;;;;;;;;;;;;;;;20.14;50.56;101635.63;4834362;29;123421;-80
2023/08/13 02:02:42;;;;;;;;;;;;;;;20.11;50.49;101636.69;4835064;29;114125;-79
2023/08/13 02:05:09;;;;;;;;;;;;;;;20.10;50.55;101634.09;4837032;29;113445;-80
2023/08/13 02:07:36;;;;;;;;;;;;;;;20.07;50.77;101634.34;4837100;29;123713;-80
2023/08/13 02:10:03;;;;;;;;;;;;;;;20.03;50.61;101634.56;4838415;29;124404;-80
2023/08/13 02:12:30;;;;;;;;;;;;;;;20.02;50.52;101638.22;4837539;29;115488;-80
2023/08/13 02:14:58;;;;;;;;;;;;;;;20.00;50.54;101634.81;4837782;29;115038;-80
2023/08/13 02:17:25;;;;;;;;;;;;;;;19.98;50.57;101636.72;4836601;29;123748;-80
2023/08/13 02:19:54;;;;;;;;;;;;;;;19.96;50.61;101621.66;4853076;28;123309;-80
2023/08/13 02:22:22;;;;;;;;;;;;;;;19.94;50.73;101627.16;4837621;29;113595;-80
2023/08/13 02:24:49;;;;;;;;;;;;;;;19.93;50.77;101628.13;4837053;29;113615;-80
2023/08/13 02:27:16;;;;;;;;;;;;;;;19.91;50.60;101619.31;4836926;29;122796;-80
2023/08/13 02:29:44;;;;;;;;;;;;;;;19.91;50.66;101624.69;4837128;29;123017;-80
2023/08/13 02:32:10;;;;;;;;;;;;;;;19.90;50.69;101627.50;4837355;29;113655;-80
2023/08/13 02:34:45;;;;;;;;;;;;;;;19.89;50.62;101626.66;4838713;29;113545;-79
2023/08/13 02:37:12;;;;;;;;;;;;;;;19.88;50.73;101624.91;4820310;29;123594;-79
2023/08/13 02:39:39;;;;;;;;;;;;;;;19.87;50.75;101620.50;4829555;29;125959;-80
2023/08/13 02:42:06;;;;;;;;;;;;;;;19.85;50.79;101614.38;4837774;29;114377;-79
2023/08/13 02:44:33;;;;;;;;;;;;;;;19.85;50.92;101617.06;4837735;29;114533;-80
2023/08/13 02:47:00;;;;;;;;;;;;;;;19.82;50.80;101620.00;4851891;29;123272;-80
2023/08/13 02:49:27;;;;;;;;;;;;;;;19.82;50.71;101617.31;4836385;29;124525;-80
2023/08/13 02:51:54;;;;;;;;;;;;;;;19.81;50.90;101619.09;4835815;29;112760;-80
2023/08/13 02:54:21;;;;;;;;;;;;;;;19.82;50.77;101620.00;4837060;29;113166;-80
2023/08/13 02:56:48;;;;;;;;;;;;;;;19.81;50.78;101618.25;4836157;29;123173;-80
2023/08/13 02:59:14;;;;;;;;;;;;;;;19.80;50.90;101614.72;4832975;29;124641;-80
2023/08/13 03:01:44;;;;;;;;;;;;;;;19.80;50.95;101616.56;4847373;29;115068;-80
2023/08/13 03:04:11;;;;;;;;;;;;;;;19.81;50.95;101618.25;4832685;29;115321;-80
2023/08/13 03:06:38;;;;;;;;;;;;;;;19.82;50.84;101625.38;4834685;28;123267;-80
2023/08/13 03:09:05;;;;;;;;;;;;;;;19.82;50.88;101620.00;4836629;29;122843;-80
2023/08/13 03:11:32;;;;;;;;;;;;;;;19.81;50.81;101619.09;4836406;29;114900;-79
2023/08/13 03:14:01;;;;;;;;;;;;;;;19.82;50.80;101622.66;4835985;29;114374;-80
2023/08/13 03:16:28;;;;;;;;;;;;;;;19.79;50.79;101614.81;4784279;29;1809479;-80
2023/08/13 03:18:55;;;;;;;;;;;;;;;19.78;50.80;101618.50;4847244;29;123157;-80
2023/08/13 03:21:22;;;;;;;;;;;;;;;19.76;50.93;101615.91;4837633;29;113436;-80
2023/08/13 03:23:49;;;;;;;;;;;;;;;19.74;50.88;101616.97;4837666;29;113800;-80
2023/08/13 03:26:17;;;;;;;;;;;;;;;19.72;50.77;101618.88;4852176;29;124717;-80
2023/08/13 03:28:45;;;;;;;;;;;;;;;19.70;50.84;101612.75;4838437;29;124347;-80
2023/08/13 03:31:15;;;;;;;;;;;;;;;19.69;50.86;101619.13;4823933;29;113309;-80
2023/08/13 03:33:54;;;;;;;;;;;;;;;19.67;50.93;101621.06;4850671;29;112173;-80
2023/08/13 03:36:23;;;;;;;;;;;;;;;19.64;50.86;101625.66;4841391;29;123879;-80
2023/08/13 03:38:50;;;;;;;;;;;;;;;19.61;50.93;101628.56;4824574;29;123534;-80
2023/08/13 03:41:16;;;;;;;;;;;;;;;19.60;50.99;101626.84;4841146;29;112292;-80
2023/08/13 03:43:43;;;;;;;;;;;;;;;19.57;51.08;101616.34;4836444;29;112635;-80
2023/08/13 03:46:11;;;;;;;;;;;;;;;19.57;51.06;101616.34;4835229;29;123331;-80
2023/08/13 03:48:38;;;;;;;;;;;;;;;19.54;50.94;101613.84;4823509;29;122993;-80
2023/08/13 03:51:05;;;;;;;;;;;;;;;19.54;50.98;101616.53;4839562;29;114837;-80
2023/08/13 03:53:32;;;;;;;;;;;;;;;19.53;50.99;101620.16;4853238;28;114524;-80
2023/08/13 03:55:59;;;;;;;;;;;;;;;19.53;50.98;101619.31;4854718;29;124067;-79
2023/08/13 03:58:28;;;;;;;;;;;;;;;19.51;51.10;101624.81;4838778;29;125314;-80
2023/08/13 04:00:55;;;;;;;;;;;;;;;19.51;51.16;101626.63;4854682;29;115700;-80
2023/08/13 04:03:22;;;;;;;;;;;;;;;19.49;51.02;101624.06;4839051;29;113087;-79
2023/08/13 04:05:53;;;;;;;;;;;;;;;19.47;51.19;101615.25;4823582;29;124331;-79
2023/08/13 04:08:20;;;;;;;;;;;;;;;19.45;51.15;101619.88;4838622;29;123941;-80
2023/08/13 04:10:49;;;;;;;;;;;;;;;19.43;51.02;101621.81;4844612;29;112816;-80
2023/08/13 04:13:16;;;;;;;;;;;;;;;19.41;51.07;101623.75;4835580;29;113882;-79
2023/08/13 04:15:43;;;;;;;;;;;;;;;19.40;51.19;101630.06;4853158;28;126317;-80
2023/08/13 04:18:11;;;;;;;;;;;;;;;19.36;51.21;101628.56;4837081;29;123190;-79
2023/08/13 04:20:41;;;;;;;;;;;;;;;19.34;51.14;101625.13;4854788;29;112547;-80
2023/08/13 04:23:08;;;;;;;;;;;;;;;19.34;51.11;101625.13;4838879;29;115319;-80
2023/08/13 04:25:38;;;;;;;;;;;;;;;19.32;51.37;101619.84;4822796;29;125664;-79
2023/08/13 04:28:07;;;;;;;;;;;;;;;19.32;51.30;101627.06;4848312;29;125114;-80
2023/08/13 04:30:38;;;;;;;;;;;;;;;19.32;51.39;101627.06;4838359;29;113535;-79
2023/08/13 04:33:05;;;;;;;;;;;;;;;19.31;51.24;101625.31;4839449;29;113980;-80
2023/08/13 04:35:33;;;;;;;;;;;;;;;19.31;51.39;101625.31;4841721;29;124425;-79
2023/08/13 04:38:01;;;;;;;;;;;;;;;19.30;51.33;101629.84;4830339;29;125269;-79
2023/08/13 04:40:28;;;;;;;;;;;;;;;19.28;51.18;101625.56;4848833;29;116820;-79
2023/08/13 04:42:55;;;;;;;;;;;;;;;19.26;51.40;101629.19;4851269;29;114513;-80
2023/08/13 04:45:23;;;;;;;;;;;;;;;19.23;51.38;101628.56;4836514;29;126505;-80
2023/08/13 04:47:50;;;;;;;;;;;;;;;19.21;51.42;101630.47;4850092;29;125972;-79
2023/08/13 04:50:17;;;;;;;;;;;;;;;19.19;51.52;101633.31;4837959;29;114189;-80
2023/08/13 04:52:45;;;;;;;;;;;;;;;19.18;51.53;101631.56;4834273;29;112969;-80
2023/08/13 04:55:15;;;;;;;;;;;;;;;19.18;51.40;101631.56;4849633;29;125878;-80
2023/08/13 04:57:43;;;;;;;;;;;;;;;19.17;51.35;101640.56;4843849;29;125555;-80
2023/08/13 05:00:12;;;;;;;;;;;;;;;19.16;51.57;101632.66;4822370;29;114474;-80
2023/08/13 05:02:42;;;;;;;;;;;;;;;19.17;51.52;101629.84;4848428;29;113090;-80
2023/08/13 05:05:10;;;;;;;;;;;;;;;19.17;51.66;101624.47;4834188;29;122672;-80
2023/08/13 05:07:37;;;;;;;;;;;;;;;19.18;51.76;101630.72;4835180;29;125228;-80
2023/08/13 05:10:04;;;;;;;;;;;;;;;19.20;51.63;101629.63;4834831;29;114062;-80
2023/08/13 05:12:31;;;;;;;;;;;;;;;19.24;51.68;101636.50;4834867;29;114600;-80
2023/08/13 05:14:59;;;;;;;;;;;;;;;19.29;51.72;101632.63;4830599;29;123849;-80
2023/08/13 05:17:27;;;;;;;;;;;;;;;19.31;51.83;101634.28;4833021;29;125913;-79
2023/08/13 05:19:54;;;;;;;;;;;;;;;19.35;51.76;101632.22;4833911;29;114723;-80
2023/08/13 05:22:21;;;;;;;;;;;;;;;19.39;51.92;101633.72;4829936;29;112061;-79
2023/08/13 05:24:48;;;;;;;;;;;;;;;19.43;51.69;101629.88;4848146;28;122489;-80
2023/08/13 05:27:16;;;;;;;;;;;;;;;19.47;51.71;101635.88;4849693;29;123525;-80
2023/08/13 05:29:44;;;;;;;;;;;;;;;19.50;51.89;101636.53;4827301;29;114402;-80
2023/08/13 05:32:11;;;;;;;;;;;;;;;19.54;51.90;101640.72;4850582;29;113948;-80
2023/08/13 05:34:39;;;;;;;;;;;;;;;19.58;51.75;101639.53;4834511;29;123147;-80
2023/08/13 05:37:07;;;;;;;;;;;;;;;19.62;51.77;101635.66;4832839;29;125517;-78
2023/08/13 05:39:34;;;;;;;;;;;;;;;19.67;51.86;101631.81;4834450;29;113731;-79
2023/08/13 05:42:02;;;;;;;;;;;;;;;19.70;51.78;101636.94;4833898;29;113003;-79
2023/08/13 05:44:28;;;;;;;;;;;;;;;19.75;51.77;101634.81;4816037;29;123560;-79
2023/08/13 05:46:56;;;;;;;;;;;;;;;19.79;51.78;101630.94;4834904;29;122631;-80
2023/08/13 05:49:24;;;;;;;;;;;;;;;19.82;51.82;101646.88;4834858;29;115078;-79
2023/08/13 05:51:51;;;;;;;;;;;;;;;19.84;51.77;101645.78;4834867;29;114135;-80
2023/08/13 05:54:18;;;;;;;;;;;;;;;19.88;51.79;101646.41;4834012;29;123943;-79
2023/08/13 05:56:45;;;;;;;;;;;;;;;19.92;51.83;101647.91;4835917;29;124091;-80
2023/08/13 05:59:12;;;;;;;;;;;;;;;19.97;51.80;101651.13;4850314;28;113483;-79
2023/08/13 06:01:39;;;;;;;;;;;;;;;20.01;51.88;101647.25;4834703;29;112900;-79
2023/08/13 06:04:06;;;;;;;;;;;;;;;20.07;51.83;101650.47;4835500;29;124090;-79
2023/08/13 06:06:33;;;;;;;;;;;;;;;20.12;51.88;101648.31;4834468;29;124905;-79
2023/08/13 06:09:00;;;;;;;;;;;;;;;20.17;51.93;101656.91;4819071;29;112561;-79
2023/08/13 06:11:26;;;;;;;;;;;;;;;20.20;51.94;101656.69;4832937;29;112656;-80
2023/08/13 06:13:53;;;;;;;;;;;;;;;20.25;51.89;101657.22;4834997;29;124122;-79
2023/08/13 06:16:20;;;;;;;;;;;;;;;20.30;51.98;101649.66;4849550;29;122504;-79
2023/08/13 06:18:48;;;;;;;;;;;;;;;20.36;51.95;101651.91;4835441;29;115330;-80
2023/08/13 06:21:14;;;;;;;;;;;;;;;20.41;51.93;101659.63;4836256;29;115317;-79
2023/08/13 06:23:41;;;;;;;;;;;;;;;20.49;51.91;101661.75;4833841;29;125682;-79
2023/08/13 06:26:08;;;;;;;;;;;;;;;20.55;51.96;101661.28;4833689;29;125063;-79
2023/08/13 06:28:35;;;;;;;;;;;;;;;20.63;51.98;101650.84;4833242;29;113396;-79
2023/08/13 06:31:03;;;;;;;;;;;;;;;20.71;51.99;101656.50;4817899;29;112921;-79
2023/08/13 06:33:30;;;;;;;;;;;;;;;20.78;52.01;101657.78;4834439;29;123672;-79
2023/08/13 06:35:57;;;;;;;;;;;;;;;20.85;51.91;101651.91;4826864;29;124101;-79
2023/08/13 06:38:25;;;;;;;;;;;;;;;20.93;51.93;101654.91;4848065;29;114354;-79
2023/08/13 06:40:52;;;;;;;;;;;;;;;21.01;51.94;101657.88;4829927;29;114783;-79
2023/08/13 06:43:19;;;;;;;;;;;;;;;21.11;52.03;101653.47;4819085;29;123348;-79
2023/08/13 06:45:46;;;;;;;;;;;;;;;21.19;52.02;101648.38;4832764;28;123629;-79
2023/08/13 06:48:13;;;;;;;;;;;;;;;21.31;52.10;101660.03;4828039;29;114098;-79
2023/08/13 06:50:40;;;;;;;;;;;;;;;21.43;52.17;101652.81;4836777;29;113802;-79
2023/08/13 06:53:07;;;;;;;;;;;;;;;21.55;52.17;101651.91;4829860;29;124910;-79
2023/08/13 06:55:34;;;;;;;;;;;;;;;21.67;52.07;101649.22;4849597;29;123142;-79
2023/08/13 06:58:01;;;;;;;;;;;;;;;21.77;52.03;101650.19;4838615;29;115240;-79
2023/08/13 07:00:28;;;;;;;;;;;;;;;21.86;51.85;101660.25;4840281;29;113809;-79
2023/08/13 07:03:06;;;;;;;;;;;;;;;21.95;51.90;101646.03;4824002;29;123496;-79
2023/08/13 07:05:34;;;;;;;;;;;;;;;22.03;51.87;101641.84;4837717;29;123890;-79
2023/08/13 07:08:01;;;;;;;;;;;;;;;22.11;51.81;101647.47;4838397;29;115337;-79
2023/08/13 07:10:28;;;;;;;;;;;;;;;22.18;51.82;101648.69;4841201;29;113811;-80
2023/08/13 07:12:55;;;;;;;;;;;;;;;22.27;51.83;101653.38;4832602;29;123672;-78
2023/08/13 07:15:22;;;;;;;;;;;;;;;22.32;51.82;101648.47;4839831;28;123098;-79
2023/08/13 07:17:49;;;;;;;;;;;;;;;22.39;51.65;101650.66;4843012;29;113857;-79
2023/08/13 07:20:16;;;;;;;;;;;;;;;22.46;51.77;101641.91;4855946;29;113312;-79
2023/08/13 07:22:44;;;;;;;;;;;;;;;22.54;51.81;101643.97;4843331;29;124043;-79
2023/08/13 07:25:11;;;;;;;;;;;;;;;22.64;51.74;101650.34;4842982;29;124539;-79
2023/08/13 07:27:39;;;;;;;;;;;;;;;22.74;51.80;101645.03;4843133;29;114774;-78
2023/08/13 07:30:07;;;;;;;;;;;;;;;22.84;51.83;101645.09;4853118;29;113861;-79
2023/08/13 07:32:35;;;;;;;;;;;;;;;22.93;51.73;101647.03;4840205;29;123609;-79
2023/08/13 07:35:02;;;;;;;;;;;;;;;23.01;51.76;101641.81;4838984;29;122284;-79
2023/08/13 07:37:29;;;;;;;;;;;;;;;23.11;51.62;101648.19;4841347;29;114075;-79
2023/08/13 07:39:56;;;;;;;;;;;;;;;23.23;51.88;101640.03;4853517;29;111822;-79
2023/08/13 07:42:23;;;;;;;;;;;;;;;23.32;51.78;101639.25;4840361;29;124020;-79
2023/08/13 07:44:50;;;;;;;;;;;;;;;23.43;51.58;101631.06;4841102;29;124079;-79
2023/08/13 07:47:19;;;;;;;;;;;;;;;23.54;51.77;101635.50;4857159;29;114481;-79
2023/08/13 07:49:46;;;;;;;;;;;;;;;23.66;51.79;101641.69;4833492;29;114837;-78
2023/08/13 07:52:13;;;;;;;;;;;;;;;23.78;51.66;101634.34;4840248;29;124304;-79
2023/08/13 07:54:40;;;;;;;;;;;;;;;23.89;51.58;101643.25;4841166;29;123937;-80
2023/08/13 07:57:07;;;;;;;;;;;;;;;23.99;51.75;101642.41;4839904;29;115556;-79
2023/08/13 07:59:34;;;;;;;;;;;;;;;24.06;51.37;101638.19;4836449;29;114967;-79
2023/08/13 08:02:03;;;;;;;;;;;;;;;24.13;51.57;101639.34;4837214;29;123005;-78
2023/08/13 08:04:30;;;;;;;;;;;;;;;24.22;51.54;101638.50;4821402;29;124194;-80
2023/08/13 08:06:57;;;;;;;;;;;;;;;24.34;51.53;101635.69;4836977;29;114976;-79
2023/08/13 08:09:24;;;;;;;;;;;;;;;24.42;51.36;101633.97;4854496;29;112700;-79
2023/08/13 08:11:51;;;;;;;;;;;;;;;24.51;51.56;101632.28;4836937;29;124543;-79
2023/08/13 08:14:18;;;;;;;;;;;;;;;24.57;51.18;101637.16;4839075;29;125038;-79
2023/08/13 08:16:44;;;;;;;;;;;;;;;24.67;51.35;101632.59;4834208;29;113606;-79
2023/08/13 08:19:12;;;;;;;;;;;;;;;24.76;51.53;101635.47;4838204;29;115053;-79
2023/08/13 08:21:39;;;;;;;;;;;;;;;24.86;51.31;101629.06;4828033;29;124351;-79
2023/08/13 08:24:06;;;;;;;;;;;;;;;24.93;51.35;101634.72;4842409;29;124818;-79
2023/08/13 08:26:33;;;;;;;;;;;;;;;25.00;51.17;101625.03;4840238;29;114855;-80
2023/08/13 08:29:00;;;;;;;;;;;;;;;25.06;51.28;101631.72;4854845;29;112981;-79
2023/08/13 08:31:26;;;;;;;;;;;;;;;25.14;50.99;101625.59;4838654;29;125190;-79
2023/08/13 08:33:53;;;;;;;;;;;;;;;25.21;51.02;101629.44;4838610;29;122893;-79
2023/08/13 08:36:20;;;;;;;;;;;;;;;25.27;51.42;101628.88;4840318;29;113045;-79
2023/08/13 08:38:47;;;;;;;;;;;;;;;25.33;51.31;101633.69;4842091;29;114447;-79
2023/08/13 08:41:15;;;;;;;;;;;;;;;25.37;50.78;101631.56;4837747;29;122803;-78
2023/08/13 08:43:42;;;;;;;;;;;;;;;25.40;51.07;101634.81;4822094;29;124360;-79
2023/08/13 08:46:11;;;;;;;;;;;;;;;25.44;50.88;101629.97;4837877;29;115549;-79
2023/08/13 08:48:39;;;;;;;;;;;;;;;25.50;50.65;101633.94;4821597;29;114207;-79
2023/08/13 08:51:07;;;;;;;;;;;;;;;25.55;50.68;101626.22;4833816;29;124174;-79
2023/08/13 08:53:34;;;;;;;;;;;;;;;25.60;50.76;101621.22;4833587;29;122219;-79
2023/08/13 08:56:01;;;;;;;;;;;;;;;25.66;51.04;101628.75;4833467;29;114448;-79
2023/08/13 08:58:28;;;;;;;;;;;;;;;25.74;50.83;101625.28;4831785;29;113474;-79
2023/08/13 09:01:00;;;;;;;;;;;;;;;25.80;50.86;101625.53;4833706;29;124642;-79
2023/08/13 09:03:27;;;;;;;;;;;;;;;25.88;50.93;101615.78;4850713;29;123626;-79
2023/08/13 09:05:55;;;;;;;;;;;;;;;25.96;50.88;101618.66;4838655;29;113941;-79
2023/08/13 09:08:34;;;;;;;;;;;;;;;26.00;50.62;101620.06;4840142;29;113644;-79
2023/08/13 09:11:01;;;;;;;;;;;;;;;26.01;50.79;101617.19;4838413;29;125088;-78
2023/08/13 09:13:27;;;;;;;;;;;;;;;26.06;50.47;101608.59;4840189;29;125211;-78
2023/08/13 09:15:54;;;;;;;;;;;;;;;26.11;50.85;101606.28;4837701;29;113526;-78
2023/08/13 09:18:21;;;;;;;;;;;;;;;26.21;50.71;101617.91;4840345;29;114596;-79
2023/08/13 09:20:49;;;;;;;;;;;;;;;26.29;50.57;101608.16;4829933;29;124375;-79
2023/08/13 09:23:22;;;;;;;;;;;;;;;26.36;50.54;101614.69;4854357;28;123796;-79
2023/08/13 09:25:53;;;;;;;;;;;;;;;26.42;50.78;101604.03;4850514;29;115294;-79
2023/08/13 09:28:21;;;;;;;;;;;;;;;26.52;50.72;101598.56;4838938;29;113961;-79
2023/08/13 09:30:48;;;;;;;;;;;;;;;26.60;50.40;101601.38;4834641;29;124378;-78
2023/08/13 09:33:15;;;;;;;;;;;;;;;26.68;50.24;101597.03;4834191;29;123282;-79
2023/08/13 09:35:44;;;;;;;;;;;;;;;26.72;50.51;101592.97;4835736;29;115275;-79
2023/08/13 09:38:11;;;;;;;;;;;;;;;26.79;50.13;101589.47;4836683;29;114739;-78
2023/08/13 09:40:38;;;;;;;;;;;;;;;26.88;50.18;101592.25;4836626;29;124497;-78
2023/08/13 09:43:06;;;;;;;;;;;;;;;26.94;50.02;101591.63;4836393;29;124144;-78
2023/08/13 09:45:34;;;;;;;;;;;;;;;27.02;50.04;101588.13;4837000;29;113691;-79
2023/08/13 09:48:05;;;;;;;;;;;;;;;27.09;50.22;101584.59;4828807;29;112953;-79
2023/08/13 09:50:34;;;;;;;;;;;;;;;27.19;50.12;101579.06;4834557;29;125068;-78
2023/08/13 09:53:02;;;;;;;;;;;;;;;27.26;50.06;101580.16;4832842;29;125061;-79
2023/08/13 09:55:31;;;;;;;;;;;;;;;27.34;50.09;101572.03;4838505;29;114570;-79
2023/08/13 09:58:00;;;;;;;;;;;;;;;27.45;50.00;101572.78;4836573;29;113200;-79
2023/08/13 10:00:27;;;;;;;;;;;;;;;27.53;49.95;101564.66;4850817;29;125181;-78
2023/08/13 10:02:54;;;;;;;;;;;;;;;27.61;49.83;101567.41;4837040;29;123913;-78
2023/08/13 10:05:21;;;;;;;;;;;;;;;27.68;49.73;101556.72;4849764;29;114675;-78
2023/08/13 10:07:49;;;;;;;;;;;;;;;27.71;49.69;101557.25;4837188;29;115272;-79
2023/08/13 10:10:16;;;;;;;;;;;;;;;27.77;49.98;101556.59;4835224;29;126089;-79
2023/08/13 10:12:43;;;;;;;;;;;;;;;27.83;49.72;101560.50;4837905;29;124620;-78
2023/08/13 10:15:11;;;;;;;;;;;;;;;27.87;49.43;101555.59;4837284;29;114669;-78
2023/08/13 10:17:38;;;;;;;;;;;;;;;27.86;49.56;101553.88;4837516;29;113606;-78
2023/08/13 10:20:05;;;;;;;;;;;;;;;27.81;49.41;101553.53;4835758;29;125862;-78
2023/08/13 10:22:36;;;;;;;;;;;;;;;27.76;49.23;101554.00;4834313;29;125528;-79
2023/08/13 10:25:06;;;;;;;;;;;;;;;27.74;49.22;101556.91;4836570;29;115609;-79
2023/08/13 10:27:52;;;;;;;;;;;;;;;27.75;49.44;101555.91;4838247;29;115211;-78
2023/08/13 10:30:19;;;;;;;;;;;;;;;27.76;49.29;101549.44;4833894;29;125022;-79
2023/08/13 10:32:55;;;;;;;;;;;;;;;27.76;49.43;101554.91;4849873;29;124242;-79
2023/08/13 10:35:28;;;;;;;;;;;;;;;27.76;49.39;101557.63;4839055;29;115699;-78
2023/08/13 10:37:56;;;;;;;;;;;;;;;27.76;49.42;101554.91;4838668;29;113814;-78
2023/08/13 10:40:23;;;;;;;;;;;;;;;27.76;49.47;101549.44;4837321;29;125773;-79
2023/08/13 10:42:51;;;;;;;;;;;;;;;27.77;49.36;101545.69;4837583;29;124364;-78
2023/08/13 10:45:19;;;;;;;;;;;;;;;27.81;49.16;101545.38;4854121;29;113901;-78
2023/08/13 10:47:46;;;;;;;;;;;;;;;27.86;49.45;101548.44;4838735;29;114140;-78
2023/08/13 10:50:25;;;;;;;;;;;;;;;27.90;49.45;101544.41;4839038;29;124962;-78
2023/08/13 10:52:54;;;;;;;;;;;;;;;27.94;49.39;101545.78;4838398;29;124905;-78
2023/08/13 10:55:24;;;;;;;;;;;;;;;27.94;48.88;101543.06;4854162;29;114429;-78
2023/08/13 10:57:52;;;;;;;;;;;;;;;27.93;48.96;101538.63;4834137;29;112772;-78
2023/08/13 11:00:23;;;;;;;;;;;;;;;27.90;48.97;101544.41;4849110;29;123097;-78
2023/08/13 11:02:56;;;;;;;;;;;;;;;27.89;48.96;101537.25;4837880;29;122777;-79
2023/08/13 11:05:23;;;;;;;;;;;;;;;27.89;48.89;101538.09;4839948;29;115034;-79
2023/08/13 11:07:51;;;;;;;;;;;;;;;27.94;48.82;101534.88;4845981;29;113072;-79
2023/08/13 11:10:18;;;;;;;;;;;;;;;28.00;49.15;101531.50;4838587;29;123827;-79
2023/08/13 11:12:46;;;;;;;;;;;;;;;28.07;49.02;101529.81;4839304;29;124613;-79
2023/08/13 11:15:14;;;;;;;;;;;;;;;28.13;49.17;101529.13;4837007;29;114386;-78
2023/08/13 11:17:47;;;;;;;;;;;;;;;28.18;49.03;101533.22;4834881;29;115557;-79
2023/08/13 11:20:16;;;;;;;;;;;;;;;28.23;48.83;101539.03;4849592;29;124718;-79
2023/08/13 11:22:44;;;;;;;;;;;;;;;28.29;48.86;101527.44;4846892;28;123190;-79
2023/08/13 11:25:12;;;;;;;;;;;;;;;28.35;48.96;101532.25;4838225;29;114192;-79
2023/08/13 11:27:40;;;;;;;;;;;;;;;28.39;48.69;101528.16;4838017;29;113741;-78
2023/08/13 11:30:08;;;;;;;;;;;;;;;28.42;48.63;101527.78;4837573;29;126187;-78
2023/08/13 11:32:35;;;;;;;;;;;;;;;28.48;48.55;101540.75;4838445;29;124213;-79
2023/08/13 11:35:06;;;;;;;;;;;;;;;28.57;48.67;101538.06;4840186;29;115094;-78
2023/08/13 11:37:33;;;;;;;;;;;;;;;28.64;48.72;101536.34;4838696;29;113869;-79
2023/08/13 11:40:01;;;;;;;;;;;;;;;28.67;48.62;101531.41;4838048;29;124063;-79
2023/08/13 11:42:28;;;;;;;;;;;;;;;28.73;48.64;101529.88;4837583;29;123354;-79
2023/08/13 11:44:55;;;;;;;;;;;;;;;28.76;48.55;101532.22;4838962;29;114507;-79
2023/08/13 11:47:26;;;;;;;;;;;;;;;28.83;48.52;101530.53;4837548;29;113170;-79
2023/08/13 11:49:54;;;;;;;;;;;;;;;28.92;48.54;101524.03;4843022;29;123163;-79
2023/08/13 11:52:21;;;;;;;;;;;;;;;29.00;48.48;101519.59;4834064;29;124359;-79
2023/08/13 11:54:49;;;;;;;;;;;;;;;29.03;48.40;101519.25;4839137;29;113838;-78
2023/08/13 11:57:18;;;;;;;;;;;;;;;29.02;48.05;101517.53;4839271;29;114305;-79
2023/08/13 11:59:46;;;;;;;;;;;;;;;29.03;48.19;101519.25;4835820;29;124177;-79
2023/08/13 12:02:13;;;;;;;;;;;;;;;29.03;48.17;101519.25;4836271;29;121993;-79
2023/08/13 12:04:44;;;;;;;;;;;;;;;29.05;48.00;101518.03;4829290;29;115280;-79
2023/08/13 12:07:11;;;;;;;;;;;;;;;29.11;48.24;101505.59;4831740;29;114396;-79
2023/08/13 12:09:38;;;;;;;;;;;;;;;29.19;48.28;101511.03;4851517;29;123599;-79
2023/08/13 12:12:05;;;;;;;;;;;;;;;29.23;48.15;101509.66;4835277;29;124338;-78
2023/08/13 12:14:32;;;;;;;;;;;;;;;29.27;47.96;101502.84;4849886;29;114596;-79
2023/08/13 12:16:59;;;;;;;;;;;;;;;29.35;48.19;101498.34;4819677;29;113053;-79
2023/08/13 12:19:26;;;;;;;;;;;;;;;29.45;48.13;101496.28;4849666;29;124832;-79
2023/08/13 12:21:53;;;;;;;;;;;;;;;29.54;47.96;101500.69;4850535;29;123790;-78
2023/08/13 12:24:19;;;;;;;;;;;;;;;29.55;47.82;101501.53;4833228;29;114212;-78
2023/08/13 12:26:46;;;;;;;;;;;;;;;29.54;47.71;101502.56;4837319;29;113815;-78
2023/08/13 12:29:13;;;;;;;;;;;;;;;29.51;47.48;101506.47;4838273;29;124193;-79